Time;durP1;ratioP1;P1;durP2;ratioP2;P2;SDS_P1;SDS_P2;PMS_P1;PMS_P2;Temp;Humidity;BMP_temperature;BMP_pressure;BME280_temperature;BME280_humidity;BME280_pressure;Samples;Min_cycle;Max_cycle;Signal;HPM_P1;HPM_P2
2024/01/17 00:00:23;;;;;;;11.57;7.15;;;-0.50;99.90;;;;;;5110015;28;20047;-34
2024/01/17 00:02:49;;;;;;;11.27;7.85;;;-0.50;99.90;;;;;;5105135;28;20441;-34
2024/01/17 00:05:15;;;;;;;10.07;7.03;;;-0.40;99.90;;;;;;5109673;28;20096;-34
2024/01/17 00:07:41;;;;;;;10.02;7.25;;;-0.50;99.90;;;;;;5077388;28;20049;-33
2024/01/17 00:10:09;;;;;;;10.90;6.82;;;-0.50;99.90;;;;;;5083968;28;20039;-33
2024/01/17 00:12:35;;;;;;;10.25;8.25;;;-0.50;99.90;;;;;;5101306;28;20054;-34
2024/01/17 00:15:00;;;;;;;9.70;7.53;;;-0.50;99.90;;;;;;5090007;28;20040;-34
2024/01/17 00:17:26;;;;;;;12.40;8.25;;;-0.50;99.90;;;;;;5092235;28;20036;-33
2024/01/17 00:19:52;;;;;;;13.32;8.25;;;-0.50;99.90;;;;;;5082426;28;20051;-32
2024/01/17 00:22:18;;;;;;;15.70;8.85;;;-0.50;99.90;;;;;;5106150;28;20154;-33
2024/01/17 00:24:45;;;;;;;14.70;8.15;;;-0.50;99.90;;;;;;5096826;28;20036;-33
2024/01/17 00:27:13;;;;;;;12.30;9.35;;;-0.50;99.90;;;;;;5100862;28;20119;-34
2024/01/17 00:29:39;;;;;;;15.77;8.90;;;-0.50;99.90;;;;;;5096040;28;20058;-33
2024/01/17 00:32:05;;;;;;;13.57;9.27;;;-0.50;99.90;;;;;;5093156;28;20380;-33
2024/01/17 00:34:30;;;;;;;12.48;9.10;;;-0.50;99.90;;;;;;5075925;28;20061;-34
2024/01/17 00:36:56;;;;;;;12.40;8.40;;;-0.40;99.90;;;;;;5092956;28;20039;-32
2024/01/17 00:39:22;;;;;;;11.30;9.18;;;-0.50;99.90;;;;;;5108217;28;20115;-33
2024/01/17 00:41:49;;;;;;;13.38;8.80;;;-0.50;99.90;;;;;;5095824;28;20483;-33
2024/01/17 00:44:18;;;;;;;13.65;9.00;;;-0.50;99.90;;;;;;5107657;28;20145;-33
2024/01/17 00:46:44;;;;;;;14.95;9.70;;;-0.50;99.90;;;;;;5097138;28;20047;-33
2024/01/17 00:49:11;;;;;;;14.00;9.93;;;-0.50;99.90;;;;;;5089091;28;20563;-34
2024/01/17 00:51:37;;;;;;;13.48;9.80;;;-0.50;99.90;;;;;;5081728;28;20466;-33
2024/01/17 00:54:03;;;;;;;11.45;9.85;;;-0.50;99.90;;;;;;5107046;28;20070;-32
2024/01/17 00:56:32;;;;;;;15.55;11.40;;;-0.50;99.90;;;;;;5072328;28;20062;-33
2024/01/17 00:58:58;;;;;;;14.80;11.23;;;-0.50;99.90;;;;;;5105450;28;20048;-31
2024/01/17 01:01:24;;;;;;;15.40;11.43;;;-0.50;99.90;;;;;;5106402;28;20043;-33
2024/01/17 01:03:50;;;;;;;15.25;10.38;;;-0.60;99.90;;;;;;5103825;28;20398;-34
2024/01/17 01:06:16;;;;;;;15.57;10.57;;;-0.60;99.90;;;;;;5100688;28;20074;-33
2024/01/17 01:08:41;;;;;;;18.48;12.50;;;-0.70;99.90;;;;;;5075440;28;20035;-33
2024/01/17 01:11:07;;;;;;;17.75;12.32;;;-0.80;99.90;;;;;;5099984;28;20040;-33
2024/01/17 01:13:33;;;;;;;17.35;11.65;;;-0.80;99.90;;;;;;5098406;28;20039;-32
2024/01/17 01:15:59;;;;;;;14.02;11.55;;;-0.80;99.90;;;;;;5099827;28;20380;-33
2024/01/17 01:18:25;;;;;;;13.85;11.25;;;-0.80;99.90;;;;;;5106546;28;20043;-33
2024/01/17 01:20:50;;;;;;;17.63;11.82;;;-0.90;99.90;;;;;;5098063;28;20581;-32
2024/01/17 01:23:16;;;;;;;14.68;11.55;;;-0.90;99.90;;;;;;5097530;28;20503;-33
2024/01/17 01:25:42;;;;;;;15.75;11.60;;;-0.90;99.90;;;;;;5093053;28;20040;-33
2024/01/17 01:28:07;;;;;;;16.10;10.73;;;-1.00;99.90;;;;;;5097323;28;20047;-33
2024/01/17 01:30:33;;;;;;;17.30;13.55;;;-1.00;99.90;;;;;;5087807;28;20086;-33
2024/01/17 01:32:59;;;;;;;17.05;11.85;;;-1.00;99.90;;;;;;5103557;28;20119;-39
2024/01/17 01:35:25;;;;;;;19.88;12.52;;;-1.00;99.90;;;;;;5107074;28;20040;-38
2024/01/17 01:37:50;;;;;;;21.38;12.93;;;-1.00;99.90;;;;;;5102928;28;20035;-37
2024/01/17 01:40:16;;;;;;;19.02;12.77;;;-1.00;99.90;;;;;;5084419;28;20052;-39
2024/01/17 01:42:45;;;;;;;23.23;14.45;;;-1.10;99.90;;;;;;5098076;28;20043;-36
2024/01/17 01:45:11;;;;;;;19.17;14.13;;;-1.00;99.90;;;;;;5103660;28;20032;-39
2024/01/17 01:47:38;;;;;;;18.95;13.95;;;-1.00;99.90;;;;;;5102630;28;20031;-37
2024/01/17 01:50:05;;;;;;;20.58;13.25;;;-1.00;99.90;;;;;;5094492;28;20115;-36
2024/01/17 01:52:35;;;;;;;16.25;13.07;;;-1.00;99.90;;;;;;5106549;28;20062;-37
2024/01/17 01:55:02;;;;;;;19.52;13.98;;;-1.00;99.90;;;;;;5108731;28;20108;-38
2024/01/17 01:57:30;;;;;;;18.83;14.38;;;-1.00;99.90;;;;;;5109911;28;20074;-38
2024/01/17 01:59:56;;;;;;;19.08;14.05;;;-1.00;99.90;;;;;;5091184;28;20039;-37
2024/01/17 02:02:24;;;;;;;20.05;15.02;;;-1.00;99.90;;;;;;5089801;28;20924;-37
2024/01/17 02:04:52;;;;;;;19.92;15.48;;;-0.90;99.90;;;;;;5114064;28;20133;-37
2024/01/17 02:07:21;;;;;;;22.67;15.40;;;-1.00;99.90;;;;;;5105416;28;20043;-37
2024/01/17 02:09:48;;;;;;;18.85;14.57;;;-0.90;99.90;;;;;;5109812;28;20040;-40
2024/01/17 02:12:15;;;;;;;19.15;15.38;;;-1.00;99.90;;;;;;5112194;28;20048;-38
2024/01/17 02:14:41;;;;;;;20.60;14.73;;;-1.00;99.90;;;;;;5103586;28;20096;-39
2024/01/17 02:17:10;;;;;;;20.83;14.73;;;-1.00;99.90;;;;;;5110148;28;20046;-38
2024/01/17 02:19:37;;;;;;;20.42;15.32;;;-1.00;99.90;;;;;;5110372;28;20028;-37
2024/01/17 02:22:03;;;;;;;21.27;14.93;;;-0.90;99.90;;;;;;5113786;28;20128;-42
2024/01/17 02:24:31;;;;;;;22.50;14.88;;;-0.90;99.90;;;;;;5100401;28;20475;-37
2024/01/17 02:26:59;;;;;;;21.83;14.00;;;-0.90;99.90;;;;;;5107332;28;20040;-36
2024/01/17 02:29:29;;;;;;;21.48;16.10;;;-1.00;99.90;;;;;;5110011;28;20031;-36
2024/01/17 02:31:56;;;;;;;20.83;14.75;;;-1.00;99.90;;;;;;5107742;28;20533;-40
2024/01/17 02:34:22;;;;;;;22.23;15.02;;;-1.00;99.90;;;;;;5110030;28;20058;-37
2024/01/17 02:36:47;;;;;;;19.98;15.65;;;-1.00;99.90;;;;;;5074868;28;20041;-40
2024/01/17 02:39:15;;;;;;;21.80;15.45;;;-1.00;99.90;;;;;;5109872;28;20108;-37
2024/01/17 02:41:43;;;;;;;19.05;14.50;;;-1.00;99.90;;;;;;5084415;28;20039;-38
2024/01/17 02:44:09;;;;;;;22.83;15.43;;;-1.00;99.90;;;;;;5093481;28;20472;-37
2024/01/17 02:46:34;;;;;;;20.13;14.85;;;-1.00;99.90;;;;;;5104852;28;20043;-40
2024/01/17 02:49:00;;;;;;;23.60;16.02;;;-1.00;99.90;;;;;;5107783;28;20036;-39
2024/01/17 02:51:26;;;;;;;23.90;15.32;;;-0.90;99.90;;;;;;5111434;28;20118;-38
2024/01/17 02:53:52;;;;;;;20.50;14.43;;;-1.00;99.90;;;;;;5109888;28;20420;-37
2024/01/17 02:56:17;;;;;;;20.52;15.13;;;-1.00;99.90;;;;;;5098508;28;20040;-34
2024/01/17 02:58:44;;;;;;;20.45;14.65;;;-1.00;99.90;;;;;;5112537;28;20490;-34
2024/01/17 03:01:09;;;;;;;22.40;15.15;;;-1.00;99.90;;;;;;5105966;28;20114;-35
2024/01/17 03:03:35;;;;;;;17.85;14.45;;;-1.00;99.90;;;;;;5114987;28;20127;-39
2024/01/17 03:06:01;;;;;;;16.80;13.70;;;-1.00;99.90;;;;;;5107147;28;20043;-35
2024/01/17 03:08:27;;;;;;;17.77;13.93;;;-1.00;99.90;;;;;;5096337;28;20036;-33
2024/01/17 03:10:53;;;;;;;18.50;13.55;;;-1.00;99.90;;;;;;5098342;28;20398;-33
2024/01/17 03:13:19;;;;;;;20.80;14.45;;;-1.10;99.90;;;;;;5101322;28;20108;-33
2024/01/17 03:15:45;;;;;;;19.90;14.20;;;-1.10;99.90;;;;;;5100305;28;20036;-34
2024/01/17 03:18:13;;;;;;;20.10;14.45;;;-1.10;99.90;;;;;;5100465;28;20159;-33
2024/01/17 03:20:42;;;;;;;17.73;14.20;;;-1.10;99.90;;;;;;5090901;28;20542;-34
2024/01/17 03:23:08;;;;;;;22.73;15.02;;;-1.10;99.90;;;;;;5101477;28;20650;-38
2024/01/17 03:25:34;;;;;;;20.20;14.63;;;-1.10;99.90;;;;;;5105930;28;20076;-34
2024/01/17 03:28:00;;;;;;;21.45;14.20;;;-1.20;99.90;;;;;;5096170;28;20044;-35
2024/01/17 03:30:26;;;;;;;17.77;14.25;;;-1.20;99.90;;;;;;5098072;28;20532;-33
2024/01/17 03:32:51;;;;;;;17.88;13.52;;;-1.20;99.90;;;;;;5096442;28;20506;-35
2024/01/17 03:35:17;;;;;;;18.42;13.80;;;-1.20;99.90;;;;;;5092412;28;20391;-33
2024/01/17 03:37:43;;;;;;;20.27;14.85;;;-1.20;99.90;;;;;;5098250;28;20058;-34
2024/01/17 03:40:09;;;;;;;18.88;13.60;;;-1.20;99.90;;;;;;5095592;28;20113;-33
2024/01/17 03:42:35;;;;;;;21.67;13.75;;;-1.20;99.90;;;;;;5076780;28;20040;-34
2024/01/17 03:45:00;;;;;;;17.73;14.27;;;-1.30;99.90;;;;;;5090112;28;20040;-34
2024/01/17 03:47:26;;;;;;;16.30;13.15;;;-1.20;99.90;;;;;;5100798;28;20035;-33
2024/01/17 03:49:52;;;;;;;15.50;13.10;;;-1.20;99.90;;;;;;5094414;28;20047;-34
2024/01/17 03:52:19;;;;;;;16.58;13.32;;;-1.30;99.90;;;;;;5095311;28;20071;-32
2024/01/17 03:54:45;;;;;;;20.95;15.48;;;-1.30;99.90;;;;;;5095603;28;20032;-33
2024/01/17 03:57:10;;;;;;;21.23;13.68;;;-1.30;99.90;;;;;;5094288;28;20049;-33
2024/01/17 03:59:36;;;;;;;17.17;13.35;;;-1.30;99.90;;;;;;5098441;28;20066;-33
2024/01/17 04:02:02;;;;;;;18.08;12.82;;;-1.30;99.90;;;;;;5072345;28;20036;-35
2024/01/17 04:04:28;;;;;;;20.10;14.13;;;-1.30;99.90;;;;;;5101345;28;20038;-33
2024/01/17 04:06:55;;;;;;;17.85;11.43;;;-1.30;99.90;;;;;;5098408;28;20055;-33
2024/01/17 04:09:20;;;;;;;16.75;12.57;;;-1.30;99.90;;;;;;5097434;28;20035;-33
2024/01/17 04:11:46;;;;;;;14.48;11.80;;;-1.30;99.90;;;;;;5099120;28;20502;-34
2024/01/17 04:14:12;;;;;;;16.33;12.75;;;-1.30;99.90;;;;;;5078154;28;20072;-34
2024/01/17 04:16:39;;;;;;;16.85;12.52;;;-1.30;99.90;;;;;;5094879;28;20484;-35
2024/01/17 04:19:06;;;;;;;14.68;10.98;;;-1.30;99.90;;;;;;5098351;28;20039;-32
2024/01/17 04:21:32;;;;;;;17.27;12.93;;;-1.30;99.90;;;;;;5092077;28;20107;-32
2024/01/17 04:23:58;;;;;;;23.75;16.45;;;-1.30;99.90;;;;;;5104989;28;20140;-35
2024/01/17 04:26:25;;;;;;;15.13;12.35;;;-1.30;99.90;;;;;;5102447;28;20036;-35
2024/01/17 04:28:52;;;;;;;17.13;12.98;;;-1.30;99.90;;;;;;5106266;28;20075;-33
2024/01/17 04:31:29;;;;;;;18.98;12.43;;;-1.30;99.90;;;;;;5096799;28;20273;-33
2024/01/17 04:33:56;;;;;;;18.67;12.77;;;-1.30;99.90;;;;;;5104838;28;20051;-33
2024/01/17 04:36:24;;;;;;;18.77;12.50;;;-1.30;99.90;;;;;;5094520;28;20398;-34
2024/01/17 04:38:49;;;;;;;18.30;12.82;;;-1.30;99.90;;;;;;5100113;28;20044;-34
2024/01/17 04:41:16;;;;;;;18.00;12.35;;;-1.30;99.90;;;;;;5097596;28;20031;-34
2024/01/17 04:43:44;;;;;;;17.90;12.15;;;-1.30;99.90;;;;;;5106442;28;20031;-33
2024/01/17 04:46:14;;;;;;;15.60;12.70;;;-1.30;99.90;;;;;;5094150;28;20449;-32
2024/01/17 04:48:45;;;;;;;17.80;12.93;;;-1.30;99.90;;;;;;5080105;28;20044;-36
2024/01/17 04:51:11;;;;;;;14.57;11.50;;;-1.30;99.90;;;;;;5083460;28;20039;-34
2024/01/17 04:53:37;;;;;;;17.33;12.43;;;-1.30;99.90;;;;;;5095088;28;20039;-33
2024/01/17 04:56:05;;;;;;;20.33;14.35;;;-1.30;99.90;;;;;;5095051;28;20072;-32
2024/01/17 04:58:34;;;;;;;16.48;11.82;;;-1.30;99.90;;;;;;5097618;28;20570;-34
2024/01/17 05:00:59;;;;;;;17.15;12.05;;;-1.30;99.90;;;;;;5103596;28;20544;-32
2024/01/17 05:03:26;;;;;;;18.35;13.07;;;-1.30;99.90;;;;;;5092839;28;20040;-34
2024/01/17 05:05:52;;;;;;;15.30;12.95;;;-1.30;99.90;;;;;;5098588;28;20105;-34
2024/01/17 05:08:17;;;;;;;16.75;12.40;;;-1.30;99.90;;;;;;5102994;28;20036;-34
2024/01/17 05:10:44;;;;;;;22.50;12.48;;;-1.30;99.90;;;;;;5100416;28;20436;-34
2024/01/17 05:13:11;;;;;;;17.48;11.45;;;-1.30;99.90;;;;;;5102912;28;20119;-33
2024/01/17 05:15:38;;;;;;;16.67;12.02;;;-1.30;99.90;;;;;;5098154;28;20036;-34
2024/01/17 05:18:07;;;;;;;17.63;11.45;;;-1.30;99.90;;;;;;5079889;28;20067;-33
2024/01/17 05:20:34;;;;;;;15.43;11.57;;;-1.30;99.90;;;;;;5105250;28;20030;-32
2024/01/17 05:23:00;;;;;;;14.60;11.40;;;-1.30;99.90;;;;;;5101201;28;20186;-33
2024/01/17 05:25:26;;;;;;;18.90;12.35;;;-1.30;99.90;;;;;;5086612;28;20141;-33
2024/01/17 05:27:52;;;;;;;14.50;11.45;;;-1.30;99.90;;;;;;5099120;28;20088;-33
2024/01/17 05:30:19;;;;;;;17.83;13.10;;;-1.30;99.90;;;;;;5104982;28;20135;-33
2024/01/17 05:32:45;;;;;;;18.15;12.50;;;-1.40;99.90;;;;;;5096648;28;20127;-33
2024/01/17 05:35:11;;;;;;;16.88;12.18;;;-1.40;99.90;;;;;;5098598;28;20119;-34
2024/01/17 05:37:41;;;;;;;15.35;12.23;;;-1.30;99.90;;;;;;5098137;28;20051;-34
2024/01/17 05:40:08;;;;;;;16.02;12.73;;;-1.40;99.90;;;;;;5078837;28;20036;-33
2024/01/17 05:42:35;;;;;;;17.23;12.93;;;-1.50;99.90;;;;;;5081659;28;20066;-34
2024/01/17 05:45:01;;;;;;;15.80;12.10;;;-1.50;99.90;;;;;;5095781;28;20072;-34
2024/01/17 05:47:27;;;;;;;17.50;13.32;;;-1.60;99.90;;;;;;5089063;28;20106;-32
2024/01/17 05:49:53;;;;;;;18.92;13.23;;;-1.50;99.90;;;;;;5100622;28;20550;-34
2024/01/17 05:52:19;;;;;;;15.88;10.80;;;-1.60;99.90;;;;;;5093948;28;20055;-34
2024/01/17 05:54:44;;;;;;;15.95;11.38;;;-1.60;99.90;;;;;;5098888;28;20036;-35
2024/01/17 05:57:10;;;;;;;16.48;12.45;;;-1.60;99.90;;;;;;5095084;28;20107;-32
2024/01/17 05:59:36;;;;;;;14.57;10.48;;;-1.60;99.90;;;;;;5101174;28;20032;-33
2024/01/17 06:02:02;;;;;;;17.65;12.00;;;-1.70;99.90;;;;;;5093126;28;20035;-34
2024/01/17 06:04:28;;;;;;;17.95;12.57;;;-1.70;99.90;;;;;;5088249;28;20040;-38
2024/01/17 06:06:54;;;;;;;20.75;12.10;;;-1.80;99.90;;;;;;5099541;28;20035;-38
2024/01/17 06:09:19;;;;;;;18.35;12.10;;;-1.80;99.90;;;;;;5091792;28;20119;-39
2024/01/17 06:11:46;;;;;;;17.40;12.43;;;-1.80;99.90;;;;;;5106256;28;20441;-37
2024/01/17 06:14:12;;;;;;;22.27;13.73;;;-1.80;99.90;;;;;;5092577;28;20029;-37
2024/01/17 06:16:37;;;;;;;19.23;12.18;;;-1.90;99.90;;;;;;5106491;28;20042;-37
2024/01/17 06:19:03;;;;;;;15.38;11.98;;;-1.90;99.90;;;;;;5087510;28;20047;-41
2024/01/17 06:21:29;;;;;;;17.15;12.57;;;-1.90;99.90;;;;;;5097105;28;20036;-38
2024/01/17 06:23:55;;;;;;;21.60;13.27;;;-1.90;99.90;;;;;;5103522;28;20376;-37
2024/01/17 06:26:22;;;;;;;17.73;12.35;;;-2.00;99.90;;;;;;5095105;28;20042;-37
2024/01/17 06:28:47;;;;;;;18.45;12.90;;;-2.00;99.90;;;;;;5108211;28;20050;-38
2024/01/17 06:31:25;;;;;;;16.13;12.32;;;-2.00;99.90;;;;;;5093114;28;20048;-37
2024/01/17 06:33:51;;;;;;;20.02;12.93;;;-2.00;99.90;;;;;;5105068;28;20131;-38
2024/01/17 06:36:17;;;;;;;25.50;16.50;;;-2.10;99.90;;;;;;5105030;28;20387;-38
2024/01/17 06:38:43;;;;;;;24.63;15.55;;;-2.10;99.90;;;;;;5108413;28;20151;-37
2024/01/17 06:41:09;;;;;;;21.40;14.45;;;-2.10;99.90;;;;;;5099648;28;20059;-38
2024/01/17 06:43:35;;;;;;;16.48;13.32;;;-2.10;99.90;;;;;;5109038;28;20067;-36
2024/01/17 06:46:02;;;;;;;18.50;13.00;;;-2.10;99.90;;;;;;5086198;28;20495;-38
2024/01/17 06:48:28;;;;;;;18.13;13.77;;;-2.10;99.90;;;;;;5095605;28;20432;-38
2024/01/17 06:50:54;;;;;;;18.77;13.70;;;-2.10;99.90;;;;;;5103683;28;20230;-37
2024/01/17 06:53:21;;;;;;;17.33;12.75;;;-2.20;99.90;;;;;;5114105;28;20047;-37
2024/01/17 06:55:47;;;;;;;25.15;17.88;;;-2.20;99.90;;;;;;5109956;28;20111;-38
2024/01/17 06:58:13;;;;;;;19.25;15.00;;;-2.30;99.90;;;;;;5106533;28;20046;-37
2024/01/17 07:00:38;;;;;;;19.67;13.27;;;-2.20;99.90;;;;;;5093123;28;20423;-38
2024/01/17 07:03:04;;;;;;;21.08;14.23;;;-2.20;99.90;;;;;;5079634;28;20044;-37
2024/01/17 07:05:30;;;;;;;16.42;13.30;;;-2.30;99.90;;;;;;5106510;28;20044;-36
2024/01/17 07:07:56;;;;;;;18.73;12.25;;;-2.30;99.90;;;;;;5104257;28;20452;-38
2024/01/17 07:10:23;;;;;;;18.23;13.20;;;-2.30;99.90;;;;;;5106236;28;20037;-38
2024/01/17 07:12:50;;;;;;;14.15;11.90;;;-2.30;99.90;;;;;;5091647;28;20036;-37
2024/01/17 07:15:17;;;;;;;17.05;12.27;;;-2.30;99.90;;;;;;5107104;28;20104;-40
2024/01/17 07:17:43;;;;;;;16.92;12.68;;;-2.30;99.90;;;;;;5112784;28;20044;-38
2024/01/17 07:20:10;;;;;;;15.70;11.85;;;-2.30;99.90;;;;;;5106955;28;20115;-38
2024/01/17 07:22:41;;;;;;;17.02;12.55;;;-2.30;99.90;;;;;;5092004;28;20043;-36
2024/01/17 07:25:10;;;;;;;15.10;12.48;;;-2.40;99.90;;;;;;5084392;28;20044;-36
2024/01/17 07:27:39;;;;;;;18.50;11.95;;;-2.30;99.90;;;;;;5113791;28;20035;-37
2024/01/17 07:30:06;;;;;;;17.00;11.98;;;-2.40;99.90;;;;;;5103851;28;20066;-37
2024/01/17 07:32:31;;;;;;;18.98;12.07;;;-2.40;99.90;;;;;;5113020;28;20055;-37
2024/01/17 07:34:57;;;;;;;23.67;11.40;;;-2.40;99.90;;;;;;5104955;28;20039;-38
2024/01/17 07:37:23;;;;;;;17.77;12.15;;;-2.40;99.90;;;;;;5099843;28;20047;-38
2024/01/17 07:39:49;;;;;;;16.17;12.10;;;-2.40;99.90;;;;;;5098751;28;20092;-37
2024/01/17 07:42:18;;;;;;;18.05;11.95;;;-2.40;99.90;;;;;;5105608;28;20039;-38
2024/01/17 07:44:44;;;;;;;18.05;12.23;;;-2.40;99.90;;;;;;5100465;28;20035;-38
2024/01/17 07:47:10;;;;;;;17.60;11.52;;;-2.40;99.90;;;;;;5110463;28;20035;-38
2024/01/17 07:49:39;;;;;;;17.05;11.63;;;-2.50;99.90;;;;;;5104402;28;20475;-38
2024/01/17 07:52:06;;;;;;;19.90;12.73;;;-2.40;99.90;;;;;;5104801;28;20064;-37
2024/01/17 07:54:35;;;;;;;18.95;12.93;;;-2.40;99.90;;;;;;5104647;28;20516;-39
2024/01/17 07:57:00;;;;;;;15.80;12.05;;;-2.40;99.90;;;;;;5097698;28;20394;-40
2024/01/17 07:59:27;;;;;;;21.45;12.55;;;-2.40;99.90;;;;;;5109762;28;20044;-43
2024/01/17 08:01:57;;;;;;;17.25;11.93;;;-2.40;99.90;;;;;;5089126;28;20039;-37
2024/01/17 08:04:23;;;;;;;17.45;11.57;;;-2.40;99.90;;;;;;5105745;28;20031;-38
2024/01/17 08:06:49;;;;;;;21.67;12.43;;;-2.30;99.90;;;;;;5089370;28;20047;-37
2024/01/17 08:09:21;;;;;;;16.00;11.90;;;-2.30;99.90;;;;;;5107591;28;20047;-37
2024/01/17 08:11:58;;;;;;;20.15;12.82;;;-2.30;99.90;;;;;;5104772;28;20044;-37
2024/01/17 08:14:24;;;;;;;24.40;12.57;;;-2.30;99.90;;;;;;5078094;28;20055;-37
2024/01/17 08:16:51;;;;;;;21.38;13.02;;;-2.30;99.90;;;;;;5108956;28;20468;-37
2024/01/17 08:19:17;;;;;;;16.73;12.20;;;-2.30;99.90;;;;;;5093631;28;20048;-38
2024/01/17 08:21:47;;;;;;;17.52;12.35;;;-2.20;99.90;;;;;;5105943;28;20043;-38
2024/01/17 08:24:13;;;;;;;15.35;11.15;;;-2.20;99.90;;;;;;5101969;28;20110;-43
2024/01/17 08:26:39;;;;;;;20.08;12.65;;;-2.20;99.90;;;;;;5094960;28;20466;-37
2024/01/17 08:29:05;;;;;;;14.45;10.98;;;-2.20;99.90;;;;;;5099418;28;20043;-40
2024/01/17 08:31:31;;;;;;;14.95;11.45;;;-2.10;99.90;;;;;;5089530;28;20051;-37
2024/01/17 08:33:57;;;;;;;13.93;10.85;;;-2.10;99.90;;;;;;5107881;28;20059;-37
2024/01/17 08:36:23;;;;;;;14.77;11.23;;;-2.10;99.90;;;;;;5096623;28;20036;-39
2024/01/17 08:38:49;;;;;;;16.10;11.63;;;-2.00;99.90;;;;;;5082904;28;20045;-36
2024/01/17 08:41:19;;;;;;;21.45;13.02;;;-2.00;99.90;;;;;;5109987;28;20032;-38
2024/01/17 08:43:45;;;;;;;18.52;12.13;;;-2.00;99.90;;;;;;5101054;28;20445;-37
2024/01/17 08:46:14;;;;;;;15.00;11.32;;;-2.00;99.90;;;;;;5110821;28;20043;-38
2024/01/17 08:48:40;;;;;;;17.65;12.48;;;-1.90;99.90;;;;;;5103913;28;20593;-38
2024/01/17 08:51:08;;;;;;;16.52;11.48;;;-1.80;99.90;;;;;;5099250;28;20092;-39
2024/01/17 08:53:34;;;;;;;17.67;11.63;;;-1.80;99.90;;;;;;5103827;28;20398;-37
2024/01/17 08:56:02;;;;;;;17.90;11.88;;;-1.70;99.90;;;;;;5075986;28;20502;-37
2024/01/17 08:58:28;;;;;;;18.50;12.48;;;-1.70;99.90;;;;;;5105094;28;20529;-38
2024/01/17 09:00:54;;;;;;;16.38;12.00;;;-1.60;99.90;;;;;;5096154;28;20036;-41
2024/01/17 09:03:20;;;;;;;16.58;10.82;;;-1.60;99.90;;;;;;5098971;28;20050;-37
2024/01/17 09:05:46;;;;;;;21.23;12.13;;;-1.60;99.90;;;;;;5099170;28;20040;-37
2024/01/17 09:08:13;;;;;;;15.30;11.63;;;-1.50;99.90;;;;;;5097350;28;20040;-37
2024/01/17 09:10:39;;;;;;;16.90;11.45;;;-1.50;99.90;;;;;;5105498;28;20043;-37
2024/01/17 09:13:05;;;;;;;16.00;11.20;;;-1.30;99.90;;;;;;5090722;28;20488;-37
2024/01/17 09:15:31;;;;;;;17.27;11.85;;;-1.30;99.90;;;;;;5096777;28;20045;-37
2024/01/17 09:17:57;;;;;;;15.18;11.68;;;-1.30;99.90;;;;;;5091589;28;20051;-37
2024/01/17 09:20:24;;;;;;;15.43;11.70;;;-1.20;99.90;;;;;;5100825;28;20118;-37
2024/01/17 09:22:50;;;;;;;15.10;11.35;;;-1.20;99.90;;;;;;5087566;28;20081;-37
2024/01/17 09:25:17;;;;;;;16.33;11.48;;;-1.20;99.90;;;;;;5102705;28;20039;-38
2024/01/17 09:27:43;;;;;;;16.30;10.88;;;-1.10;99.90;;;;;;5093971;28;20035;-38
2024/01/17 09:30:09;;;;;;;15.82;11.05;;;-1.00;99.90;;;;;;5101433;28;20052;-38
2024/01/17 09:32:37;;;;;;;16.48;11.70;;;-1.00;99.90;;;;;;5121055;28;20063;-38
2024/01/17 09:35:03;;;;;;;13.98;10.77;;;-0.90;99.90;;;;;;5120255;28;20115;-40
2024/01/17 09:37:29;;;;;;;16.63;10.65;;;-0.80;99.90;;;;;;5118547;28;20050;-39
2024/01/17 09:39:55;;;;;;;18.50;11.90;;;-0.80;99.90;;;;;;5121657;28;20039;-38
2024/01/17 09:42:21;;;;;;;17.15;11.93;;;-0.80;99.90;;;;;;5128627;28;20075;-38
2024/01/17 09:44:47;;;;;;;14.60;11.55;;;-0.70;99.90;;;;;;5125979;28;20114;-37
2024/01/17 09:47:17;;;;;;;15.80;11.43;;;-0.70;99.90;;;;;;5126614;28;20162;-37
2024/01/17 09:49:43;;;;;;;13.60;10.80;;;-0.70;99.90;;;;;;5122339;28;20031;-44
2024/01/17 09:52:10;;;;;;;13.15;10.93;;;-0.60;99.90;;;;;;5128379;28;20113;-47
2024/01/17 09:54:42;;;;;;;15.25;10.73;;;-0.60;99.90;;;;;;5106024;28;20043;-37
2024/01/17 09:57:13;;;;;;;16.63;11.30;;;-0.50;99.90;;;;;;5123653;28;20032;-37
2024/01/17 09:59:48;;;;;;;16.08;11.38;;;-0.50;99.90;;;;;;5129343;28;20141;-38
2024/01/17 10:02:16;;;;;;;13.80;10.45;;;-0.40;99.90;;;;;;5117634;28;20046;-37
2024/01/17 10:04:45;;;;;;;14.55;10.15;;;-0.40;99.90;;;;;;5127175;28;20030;-38
2024/01/17 10:07:12;;;;;;;16.15;11.10;;;-0.40;99.90;;;;;;5126274;27;20050;-37
2024/01/17 10:09:39;;;;;;;15.45;10.10;;;-0.30;99.90;;;;;;5133888;27;20068;-38
2024/01/17 10:12:05;;;;;;;32.00;18.95;;;-0.30;99.90;;;;;;5108825;27;20114;-41
2024/01/17 10:14:31;;;;;;;19.38;12.80;;;-0.30;99.90;;;;;;5121119;27;20509;-37
2024/01/17 10:16:57;;;;;;;26.25;16.08;;;-0.20;99.90;;;;;;5129788;27;20039;-40
2024/01/17 10:19:24;;;;;;;27.15;15.48;;;-0.20;99.90;;;;;;5128634;27;20043;-39
2024/01/17 10:21:50;;;;;;;13.43;10.75;;;-0.10;99.90;;;;;;5132020;27;20039;-41
2024/01/17 10:24:16;;;;;;;15.98;11.15;;;0.00;99.90;;;;;;5130713;27;20045;-37
2024/01/17 10:26:44;;;;;;;20.58;12.98;;;-0.10;99.90;;;;;;5124336;27;20478;-40
2024/01/17 10:29:11;;;;;;;16.05;11.35;;;0.00;99.90;;;;;;5132853;27;20035;-38
2024/01/17 10:31:40;;;;;;;15.80;11.27;;;0.00;99.90;;;;;;5104996;27;20042;-39
2024/01/17 10:34:09;;;;;;;17.63;12.13;;;0.00;99.90;;;;;;5133459;27;20052;-39
2024/01/17 10:36:42;;;;;;;13.98;10.77;;;0.10;99.90;;;;;;5126984;27;20039;-38
2024/01/17 10:39:11;;;;;;;15.93;10.68;;;0.20;99.90;;;;;;5123041;27;20039;-37
2024/01/17 10:41:59;;;;;;;14.45;10.93;;;0.20;99.90;;;;;;5132332;27;20039;-39
2024/01/17 10:44:26;;;;;;;16.25;11.77;;;0.20;99.90;;;;;;5128451;27;20051;-38
2024/01/17 10:46:52;;;;;;;15.55;11.43;;;0.20;99.90;;;;;;5132008;27;20035;-42
2024/01/17 10:49:19;;;;;;;13.23;11.20;;;0.30;99.90;;;;;;5111202;27;20042;-38
2024/01/17 10:52:08;;;;;;;15.23;11.40;;;0.40;99.90;;;;;;5132813;27;20111;-40
2024/01/17 10:54:45;;;;;;;14.88;10.82;;;0.30;99.90;;;;;;5114992;27;20043;-39
2024/01/17 10:57:14;;;;;;;17.13;10.82;;;0.40;99.90;;;;;;5125815;27;20047;-39
2024/01/17 10:59:50;;;;;;;18.13;12.88;;;0.30;99.90;;;;;;5130296;27;20349;-38
2024/01/17 11:02:20;;;;;;;16.90;12.50;;;0.40;99.90;;;;;;5107995;27;20046;-43
2024/01/17 11:04:55;;;;;;;17.52;11.00;;;0.60;99.90;;;;;;5130069;27;20167;-39
2024/01/17 11:07:22;;;;;;;14.15;10.32;;;0.60;99.90;;;;;;5122316;27;20039;-41
2024/01/17 11:09:49;;;;;;;19.10;11.25;;;0.60;99.90;;;;;;5127112;27;20047;-40
2024/01/17 11:12:16;;;;;;;13.98;10.48;;;0.50;99.90;;;;;;5124093;27;20035;-39
2024/01/17 11:14:42;;;;;;;15.00;11.20;;;0.50;99.90;;;;;;5122292;27;20054;-37
2024/01/17 11:17:10;;;;;;;12.82;10.18;;;0.50;99.90;;;;;;5130927;27;20129;-38
2024/01/17 11:19:37;;;;;;;14.98;10.77;;;0.60;99.90;;;;;;5126262;27;20037;-39
2024/01/17 11:22:03;;;;;;;14.35;10.82;;;0.50;99.90;;;;;;5130312;27;20088;-39
2024/01/17 11:24:53;;;;;;;13.48;10.50;;;0.50;99.90;;;;;;5128187;27;20479;-37
2024/01/17 11:27:29;;;;;;;15.35;10.70;;;0.50;99.90;;;;;;5134053;27;20381;-37
2024/01/17 11:30:41;;;;;;;18.75;11.95;;;0.50;99.90;;;;;;5121338;27;20495;-38
2024/01/17 11:33:12;;;;;;;13.88;11.18;;;0.50;99.90;;;;;;5124197;27;20491;-37
2024/01/17 11:35:47;;;;;;;15.80;12.98;;;0.50;99.90;;;;;;5106213;27;20039;-37
2024/01/17 11:38:15;;;;;;;16.25;11.07;;;0.60;99.90;;;;;;5125276;27;20031;-37
2024/01/17 11:40:41;;;;;;;16.38;11.45;;;0.60;99.90;;;;;;5126949;27;20027;-36
2024/01/17 11:43:10;;;;;;;14.95;10.40;;;0.70;99.90;;;;;;5127424;27;20039;-36
2024/01/17 11:45:38;;;;;;;14.82;10.80;;;0.70;99.90;;;;;;5109769;27;20114;-37
2024/01/17 11:48:19;;;;;;;14.63;10.25;;;0.70;99.90;;;;;;5131467;27;20039;-38
2024/01/17 11:51:11;;;;;;;15.70;10.20;;;0.60;99.90;;;;;;5123807;27;20455;-36
2024/01/17 11:53:40;;;;;;;18.88;11.55;;;0.60;99.90;;;;;;5125958;27;20106;-37
2024/01/17 11:56:08;;;;;;;14.07;10.63;;;0.60;99.90;;;;;;5099774;27;20043;-37
2024/01/17 11:58:41;;;;;;;13.43;10.18;;;0.70;99.90;;;;;;5131843;27;20495;-38
2024/01/17 12:01:09;;;;;;;15.57;10.93;;;0.70;99.90;;;;;;5117925;27;20079;-37
2024/01/17 12:03:35;;;;;;;15.48;11.00;;;0.70;99.90;;;;;;5131284;27;20279;-36
2024/01/17 12:06:01;;;;;;;15.45;11.10;;;0.70;99.90;;;;;;5125590;27;20118;-37
2024/01/17 12:08:28;;;;;;;17.80;12.18;;;0.70;99.90;;;;;;5129393;27;20039;-36
2024/01/17 12:10:54;;;;;;;18.25;12.32;;;0.70;99.90;;;;;;5120219;27;20040;-36
2024/01/17 12:13:23;;;;;;;14.60;10.70;;;0.80;99.90;;;;;;5125921;27;20422;-36
2024/01/17 12:15:52;;;;;;;16.58;9.98;;;0.80;99.90;;;;;;5128905;27;20119;-37
2024/01/17 12:18:20;;;;;;;15.60;10.18;;;0.90;99.90;;;;;;5120997;27;20047;-36
2024/01/17 12:20:48;;;;;;;14.13;10.40;;;0.90;99.90;;;;;;5126615;27;20042;-36
2024/01/17 12:23:18;;;;;;;17.90;11.30;;;0.90;99.90;;;;;;5123188;27;20100;-37
2024/01/17 12:25:43;;;;;;;13.60;10.63;;;1.00;99.90;;;;;;5107722;27;20168;-37
2024/01/17 12:28:09;;;;;;;13.27;9.50;;;1.00;99.90;;;;;;5103504;27;20110;-36